Time;durP1;ratioP1;P1;durP2;ratioP2;P2;SDS_P1;SDS_P2;PMS_P1;PMS_P2;Temp;Humidity;BMP_temperature;BMP_pressure;BME280_temperature;BME280_humidity;BME280_pressure;Samples;Min_cycle;Max_cycle;Signal;HPM_P1;HPM_P2
2021/12/13 00:00:33;;;;;;;10.68;2.95;;;9.40;99.90;;;;;;5022387;28;20052;-82
2021/12/13 00:03:19;;;;;;;3.58;1.98;;;9.40;99.90;;;;;;5020686;28;20396;-81
2021/12/13 00:05:50;;;;;;;6.75;3.42;;;9.40;99.90;;;;;;5022411;28;20124;-82
2021/12/13 00:08:25;;;;;;;2.13;1.67;;;9.40;99.90;;;;;;5022356;28;20053;-82
2021/12/13 00:10:59;;;;;;;3.65;3.20;;;9.40;99.90;;;;;;5022316;28;20057;-80
2021/12/13 00:13:36;;;;;;;3.78;3.15;;;9.40;99.90;;;;;;5004601;28;20050;-80
2021/12/13 00:16:05;;;;;;;4.13;3.78;;;9.40;99.90;;;;;;5021813;28;20132;-80
2021/12/13 00:18:35;;;;;;;8.80;2.63;;;9.40;99.90;;;;;;5022359;28;20132;-80
2021/12/13 00:21:07;;;;;;;2.72;2.53;;;9.40;99.90;;;;;;5021719;28;20076;-80
2021/12/13 00:23:55;;;;;;;6.35;2.65;;;9.40;99.90;;;;;;5021992;28;20041;-80
2021/12/13 00:26:30;;;;;;;8.77;3.70;;;9.40;99.90;;;;;;5021821;28;20037;-81
2021/12/13 00:28:56;;;;;;;4.97;2.67;;;9.40;99.90;;;;;;5015485;28;20065;-80
2021/12/13 00:31:26;;;;;;;5.00;3.50;;;9.40;99.90;;;;;;5001235;28;20046;-80
2021/12/13 00:34:08;;;;;;;3.75;2.63;;;9.40;99.90;;;;;;4984456;28;20049;-80
2021/12/13 00:36:37;;;;;;;4.00;3.55;;;9.40;99.90;;;;;;4983830;28;20141;-80
2021/12/13 00:39:13;;;;;;;3.50;3.28;;;9.40;99.90;;;;;;4984093;28;20045;-80
2021/12/13 00:41:42;;;;;;;4.10;3.47;;;9.40;99.90;;;;;;5002000;28;20054;-80
2021/12/13 00:44:33;;;;;;;4.88;2.95;;;9.40;99.90;;;;;;5001791;28;20069;-80
2021/12/13 00:47:06;;;;;;;3.60;3.05;;;9.40;99.90;;;;;;4999747;28;20170;-80
2021/12/13 00:49:35;;;;;;;6.75;3.30;;;9.40;99.90;;;;;;5002342;28;20152;-80
2021/12/13 00:52:02;;;;;;;2.03;1.83;;;9.40;99.90;;;;;;5001683;28;20547;-80
2021/12/13 00:54:37;;;;;;;8.82;3.10;;;9.40;99.90;;;;;;5001897;28;20511;-80
2021/12/13 00:57:03;;;;;;;3.55;2.45;;;9.40;99.90;;;;;;5001838;28;20658;-80
2021/12/13 00:59:33;;;;;;;5.28;3.70;;;9.40;99.90;;;;;;4984589;28;20042;-80
2021/12/13 01:02:02;;;;;;;5.03;3.30;;;9.40;99.90;;;;;;4966412;28;20092;-80
2021/12/13 01:04:46;;;;;;;5.60;4.03;;;9.40;99.90;;;;;;5001983;28;20500;-80
2021/12/13 01:07:34;;;;;;;3.58;2.42;;;9.40;99.90;;;;;;4984315;28;20053;-80
2021/12/13 01:10:08;;;;;;;4.07;3.40;;;9.40;99.90;;;;;;5001346;28;20567;-80
2021/12/13 01:12:36;;;;;;;5.57;3.10;;;9.40;99.90;;;;;;4984290;28;20046;-80
2021/12/13 01:15:16;;;;;;;3.20;2.95;;;9.40;99.90;;;;;;5001434;28;20080;-80
2021/12/13 01:20:30;;;;;;;5.28;3.63;;;9.40;99.90;;;;;;5002147;28;20046;-80
2021/12/13 01:23:07;;;;;;;4.32;3.80;;;9.40;99.90;;;;;;5001342;28;20104;-80
2021/12/13 01:25:47;;;;;;;2.33;2.13;;;9.40;99.90;;;;;;5001407;28;20046;-80
2021/12/13 01:28:33;;;;;;;4.43;2.83;;;9.40;99.90;;;;;;5001247;28;20400;-80
2021/12/13 01:31:09;;;;;;;3.22;3.03;;;9.40;99.90;;;;;;5019379;28;20049;-80
2021/12/13 01:33:39;;;;;;;3.75;3.22;;;9.40;99.90;;;;;;5021385;28;20116;-80
2021/12/13 01:36:06;;;;;;;5.85;3.13;;;9.40;99.90;;;;;;4987193;28;20045;-80
2021/12/13 01:38:55;;;;;;;3.63;3.42;;;9.40;99.90;;;;;;5021404;28;20151;-80
2021/12/13 01:41:28;;;;;;;3.63;3.33;;;9.40;99.90;;;;;;5003278;28;20050;-81
2021/12/13 01:44:09;;;;;;;3.78;3.47;;;9.40;99.90;;;;;;5003352;28;20129;-80
2021/12/13 01:46:38;;;;;;;3.97;3.15;;;9.40;99.90;;;;;;5020347;28;20446;-81
2021/12/13 01:49:05;;;;;;;5.70;4.40;;;9.40;99.90;;;;;;5005403;28;20488;-80
2021/12/13 01:51:33;;;;;;;1.73;1.65;;;9.40;99.90;;;;;;5024993;28;20045;-80
2021/12/13 01:54:14;;;;;;;4.45;2.35;;;9.40;99.90;;;;;;5024573;28;20079;-80
2021/12/13 01:56:58;;;;;;;3.78;3.45;;;9.40;99.90;;;;;;5007124;28;20134;-80
2021/12/13 02:02:17;;;;;;;4.55;4.18;;;9.30;99.90;;;;;;5006060;28;20128;-80
2021/12/13 02:04:45;;;;;;;2.63;2.42;;;9.40;99.90;;;;;;5024017;28;20057;-80
2021/12/13 02:07:12;;;;;;;12.10;3.85;;;9.40;99.90;;;;;;5024227;28;20053;-80
2021/12/13 02:09:44;;;;;;;4.85;4.20;;;9.40;99.90;;;;;;4990319;28;20091;-80
2021/12/13 02:12:17;;;;;;;2.45;2.25;;;9.40;99.90;;;;;;5024248;28;20491;-80
2021/12/13 02:14:48;;;;;;;2.60;2.28;;;9.40;99.90;;;;;;5006526;28;20045;-80
2021/12/13 02:17:19;;;;;;;2.60;2.40;;;9.40;99.90;;;;;;5023375;28;20041;-80
2021/12/13 02:19:59;;;;;;;3.80;3.22;;;9.40;99.90;;;;;;5024311;28;20214;-80
2021/12/13 02:22:37;;;;;;;5.22;2.50;;;9.40;99.90;;;;;;5024457;28;20045;-80
2021/12/13 02:25:23;;;;;;;5.22;2.40;;;9.40;99.90;;;;;;5005997;28;20045;-80
2021/12/13 02:27:55;;;;;;;3.50;3.20;;;9.40;99.90;;;;;;5024337;28;20045;-80
2021/12/13 02:30:27;;;;;;;3.75;2.70;;;9.30;99.90;;;;;;5006259;28;20100;-80
2021/12/13 02:32:53;;;;;;;3.40;2.30;;;9.40;99.90;;;;;;5002739;28;20050;-80
2021/12/13 02:35:23;;;;;;;5.07;1.65;;;9.30;99.90;;;;;;5004701;28;20411;-79
2021/12/13 02:37:49;;;;;;;2.40;1.92;;;9.40;99.90;;;;;;5004317;28;20096;-80
2021/12/13 02:40:17;;;;;;;1.92;1.80;;;9.30;99.90;;;;;;5003972;28;20033;-79
2021/12/13 02:42:44;;;;;;;2.65;2.45;;;9.30;99.90;;;;;;5004052;28;20049;-80
2021/12/13 02:45:23;;;;;;;5.63;2.75;;;9.40;99.90;;;;;;5003879;28;20052;-79
2021/12/13 02:48:04;;;;;;;6.85;3.97;;;9.30;99.90;;;;;;5003994;28;20042;-79
2021/12/13 02:50:49;;;;;;;4.40;2.25;;;9.40;99.90;;;;;;4986692;28;20048;-80
2021/12/13 02:53:21;;;;;;;3.45;0.77;;;9.30;99.90;;;;;;5003226;28;20046;-80
2021/12/13 02:55:47;;;;;;;1.33;0.82;;;9.30;99.90;;;;;;4986940;28;20069;-79
2021/12/13 02:58:15;;;;;;;3.55;1.58;;;9.40;99.90;;;;;;4985945;28;20058;-80
2021/12/13 03:00:50;;;;;;;1.90;1.40;;;9.30;99.90;;;;;;4984868;28;20083;-80
2021/12/13 03:03:21;;;;;;;3.03;1.83;;;9.40;99.90;;;;;;4970504;28;20140;-80
2021/12/13 03:05:49;;;;;;;11.15;1.38;;;9.30;99.90;;;;;;5003706;28;20064;-79
2021/12/13 03:08:20;;;;;;;1.73;1.60;;;9.30;99.90;;;;;;4986035;28;20054;-79
2021/12/13 03:10:52;;;;;;;3.38;1.75;;;9.30;99.90;;;;;;5004096;28;20041;-79
2021/12/13 03:13:19;;;;;;;;;;;9.30;99.90;;;;;;5004115;28;20145;-79
2021/12/13 03:16:11;;;;;;;3.40;2.42;;;9.30;99.90;;;;;;5002841;28;19921;-80
2021/12/13 03:18:51;;;;;;;1.77;1.65;;;9.30;99.90;;;;;;4975589;28;20117;-79
2021/12/13 03:21:49;;;;;;;2.97;1.42;;;9.30;99.90;;;;;;5003982;28;20070;-80
2021/12/13 03:24:36;;;;;;;1.88;1.00;;;9.30;99.90;;;;;;5003249;28;20104;-79
2021/12/13 03:27:04;;;;;;;1.65;1.50;;;9.30;99.90;;;;;;5002945;28;20100;-80
2021/12/13 03:29:44;;;;;;;3.70;1.90;;;9.30;99.90;;;;;;5013634;28;20514;-79
2021/12/13 03:32:13;;;;;;;3.17;1.60;;;9.30;99.90;;;;;;4988030;28;20697;-80
2021/12/13 03:34:43;;;;;;;3.33;1.70;;;9.30;99.90;;;;;;5022683;28;20663;-79
2021/12/13 03:37:16;;;;;;;3.05;2.05;;;9.30;99.90;;;;;;5023014;28;20179;-79
2021/12/13 03:39:47;;;;;;;1.17;1.10;;;9.30;99.90;;;;;;5023287;28;20050;-79
2021/12/13 03:42:22;;;;;;;3.65;1.00;;;9.30;99.90;;;;;;5005108;28;20050;-79
2021/12/13 03:44:52;;;;;;;6.60;1.67;;;9.20;99.90;;;;;;5005527;28;20038;-79
2021/12/13 03:47:23;;;;;;;8.20;2.80;;;9.30;99.90;;;;;;5020970;28;20041;-79
2021/12/13 03:49:52;;;;;;;1.20;1.10;;;9.30;99.90;;;;;;5022826;28;20038;-79
2021/12/13 03:52:22;;;;;;;5.43;1.60;;;9.20;99.90;;;;;;5005391;28;20122;-79
2021/12/13 03:54:49;;;;;;;2.22;1.55;;;9.20;99.90;;;;;;5004989;28;20053;-79
2021/12/13 03:57:17;;;;;;;2.22;2.03;;;9.20;99.90;;;;;;5022258;28;20049;-79
2021/12/13 03:59:44;;;;;;;3.25;1.85;;;9.20;99.90;;;;;;5004829;28;20049;-80
2021/12/13 04:02:17;;;;;;;1.42;1.33;;;9.20;99.90;;;;;;5003630;28;20081;-80
2021/12/13 04:04:50;;;;;;;0.77;0.70;;;9.20;99.90;;;;;;5022272;28;20046;-79
2021/12/13 04:07:21;;;;;;;1.85;1.35;;;9.20;99.90;;;;;;5023102;28;20056;-79
2021/12/13 04:09:49;;;;;;;1.00;0.88;;;9.20;99.90;;;;;;5005050;28;20053;-79
2021/12/13 04:12:17;;;;;;;2.17;1.60;;;9.20;99.90;;;;;;5021767;28;20415;-79
2021/12/13 04:14:55;;;;;;;2.35;1.40;;;9.20;99.90;;;;;;5022359;28;20148;-79
2021/12/13 04:17:37;;;;;;;1.00;0.88;;;9.10;99.90;;;;;;4987526;28;20049;-81
2021/12/13 04:20:14;;;;;;;4.32;1.15;;;9.10;99.90;;;;;;5021666;28;20041;-79
2021/12/13 04:22:47;;;;;;;0.43;0.43;;;9.10;99.90;;;;;;5022011;28;20662;-79
2021/12/13 04:25:22;;;;;;;0.63;0.63;;;9.10;99.90;;;;;;5020613;28;20058;-79
2021/12/13 04:28:05;;;;;;;1.00;0.90;;;9.10;99.90;;;;;;5021572;28;20100;-79
2021/12/13 04:30:46;;;;;;;0.63;0.63;;;9.10;99.90;;;;;;5000949;28;20044;-79
2021/12/13 04:33:25;;;;;;;0.43;0.43;;;9.10;99.90;;;;;;5000779;28;20125;-80
2021/12/13 04:35:54;;;;;;;1.00;0.93;;;9.10;99.90;;;;;;4967248;28;20064;-81
2021/12/13 04:38:25;;;;;;;0.73;0.73;;;9.10;99.90;;;;;;5001790;28;20046;-80
2021/12/13 04:40:53;;;;;;;0.40;0.40;;;9.10;99.90;;;;;;5000978;28;20054;-81
2021/12/13 04:43:20;;;;;;;0.32;0.32;;;9.00;99.90;;;;;;4983446;28;20045;-79
2021/12/13 04:45:57;;;;;;;0.52;0.52;;;9.00;99.90;;;;;;5000074;28;20504;-79
2021/12/13 04:48:27;;;;;;;1.33;0.52;;;9.00;99.90;;;;;;4982916;28;20085;-80
2021/12/13 04:51:09;;;;;;;3.05;1.00;;;9.00;99.90;;;;;;5000668;28;20637;-80
2021/12/13 04:53:41;;;;;;;0.88;0.77;;;9.00;99.90;;;;;;5000916;28;20054;-80
2021/12/13 04:56:12;;;;;;;;;;;9.00;99.90;;;;;;4983743;28;20107;-79
2021/12/13 04:58:40;;;;;;;3.45;1.50;;;9.00;99.90;;;;;;4983165;28;19922;-80
2021/12/13 05:01:09;;;;;;;1.60;1.50;;;9.00;99.90;;;;;;4982161;28;20046;-79
2021/12/13 05:03:39;;;;;;;0.77;0.77;;;9.00;99.90;;;;;;5001223;28;20120;-79
2021/12/13 05:06:09;;;;;;;0.85;0.85;;;9.00;99.90;;;;;;4983382;28;20042;-79
2021/12/13 05:08:34;;;;;;;1.30;1.20;;;9.00;99.90;;;;;;5000923;28;20255;-80
2021/12/13 05:11:04;;;;;;;0.95;0.95;;;9.00;99.90;;;;;;4982888;28;20050;-79
2021/12/13 05:13:30;;;;;;;1.42;1.33;;;9.00;99.90;;;;;;5000771;28;20285;-80
2021/12/13 05:16:08;;;;;;;0.98;0.98;;;9.00;99.90;;;;;;4981930;28;20237;-79
2021/12/13 05:18:40;;;;;;;1.45;1.45;;;9.00;99.90;;;;;;4983548;28;20046;-80
2021/12/13 05:21:10;;;;;;;2.53;1.25;;;9.00;99.90;;;;;;5000204;28;20117;-79
2021/12/13 05:23:50;;;;;;;2.05;1.17;;;9.00;99.90;;;;;;4984900;28;20576;-80
2021/12/13 05:26:38;;;;;;;7.60;1.25;;;9.00;99.90;;;;;;4970819;28;20346;-79
2021/12/13 05:29:07;;;;;;;1.42;1.33;;;9.00;99.90;;;;;;4977192;28;20080;-80
2021/12/13 05:31:33;;;;;;;1.30;1.23;;;8.90;99.90;;;;;;5023102;28;20033;-80
2021/12/13 05:34:04;;;;;;;2.20;2.05;;;8.90;99.90;;;;;;5023589;28;20052;-80
2021/12/13 05:36:35;;;;;;;1.52;1.02;;;8.90;99.90;;;;;;5024494;28;20075;-79
2021/12/13 05:39:08;;;;;;;2.00;1.50;;;8.90;99.90;;;;;;5023610;28;20053;-80
2021/12/13 05:41:35;;;;;;;5.50;2.00;;;8.90;99.90;;;;;;5006203;28;20048;-80
2021/12/13 05:44:08;;;;;;;1.83;1.70;;;8.90;99.90;;;;;;5023279;28;20053;-80
2021/12/13 05:46:41;;;;;;;2.78;1.23;;;8.90;99.90;;;;;;5023008;28;20088;-79
2021/12/13 05:49:16;;;;;;;2.85;2.65;;;8.90;99.90;;;;;;5005662;28;20045;-80
2021/12/13 05:51:50;;;;;;;3.10;1.95;;;8.90;99.90;;;;;;5023820;28;20041;-80
2021/12/13 05:54:34;;;;;;;4.75;2.45;;;8.90;99.90;;;;;;5023677;28;20034;-80
2021/12/13 05:56:59;;;;;;;1.50;1.40;;;8.80;99.90;;;;;;5005696;28;20034;-80
2021/12/13 05:59:33;;;;;;;2.33;2.22;;;8.90;99.90;;;;;;5023620;28;20561;-80
2021/12/13 06:02:17;;;;;;;5.03;1.58;;;8.90;99.90;;;;;;5022048;28;20049;-79
2021/12/13 06:04:56;;;;;;;2.85;1.45;;;8.90;99.90;;;;;;5023713;28;20053;-80
2021/12/13 06:07:32;;;;;;;1.67;1.55;;;8.90;99.90;;;;;;5022636;28;20041;-82
2021/12/13 06:10:18;;;;;;;3.45;1.23;;;8.90;99.90;;;;;;5023936;28;20119;-81
2021/12/13 06:13:08;;;;;;;1.98;1.85;;;8.90;99.90;;;;;;5021354;28;20038;-80
2021/12/13 06:15:42;;;;;;;1.90;1.10;;;8.90;99.90;;;;;;5013060;28;20042;-81
2021/12/13 06:18:21;;;;;;;1.35;1.25;;;8.90;99.90;;;;;;5014033;28;21343;-80
2021/12/13 06:21:13;;;;;;;2.67;2.47;;;8.90;99.90;;;;;;5018278;28;20045;-80
2021/12/13 06:23:39;;;;;;;1.85;1.38;;;8.90;99.90;;;;;;5008933;28;20137;-81
2021/12/13 06:26:10;;;;;;;3.65;2.35;;;8.80;99.90;;;;;;5016380;28;20179;-81
2021/12/13 06:28:39;;;;;;;1.83;1.55;;;8.90;99.90;;;;;;5007820;28;20042;-81
2021/12/13 06:31:23;;;;;;;1.48;1.13;;;8.80;99.90;;;;;;5014660;28;20045;-81
2021/12/13 06:33:55;;;;;;;1.67;1.08;;;8.90;99.90;;;;;;5016559;28;20120;-81
2021/12/13 06:36:34;;;;;;;2.40;1.25;;;8.80;99.90;;;;;;5018827;28;20042;-81
2021/12/13 06:39:06;;;;;;;2.00;1.60;;;8.80;99.90;;;;;;5018730;28;20040;-82
2021/12/13 06:41:38;;;;;;;1.83;1.73;;;8.80;99.90;;;;;;5005665;28;20492;-81
2021/12/13 06:44:15;;;;;;;1.85;1.75;;;8.80;99.90;;;;;;5004381;28;20049;-81
2021/12/13 06:46:49;;;;;;;1.73;1.63;;;8.90;99.90;;;;;;5003429;28;20052;-82
2021/12/13 06:49:33;;;;;;;2.55;2.15;;;8.80;99.90;;;;;;5019579;28;20085;-82
2021/12/13 06:52:11;;;;;;;2.08;1.98;;;8.80;99.90;;;;;;5009835;28;20068;-82
2021/12/13 06:54:46;;;;;;;3.22;1.98;;;8.80;99.90;;;;;;5020985;28;20045;-82
2021/12/13 06:57:16;;;;;;;1.77;1.67;;;8.80;99.90;;;;;;5015304;28;20049;-80
2021/12/13 06:59:56;;;;;;;1.70;1.60;;;8.80;99.90;;;;;;5009462;28;20108;-82
2021/12/13 07:02:41;;;;;;;3.47;2.65;;;8.80;99.90;;;;;;4998268;28;20049;-81
2021/12/13 07:05:23;;;;;;;3.20;2.85;;;8.80;99.90;;;;;;5010081;28;20058;-81
2021/12/13 07:07:52;;;;;;;;;;;8.80;99.90;;;;;;5004482;28;20065;-81
2021/12/13 07:10:21;;;;;;;2.28;2.17;;;8.80;99.90;;;;;;4993667;28;19973;-80
2021/12/13 07:12:56;;;;;;;2.55;2.42;;;8.80;99.90;;;;;;4986825;28;20046;-80
2021/12/13 07:15:42;;;;;;;2.75;2.28;;;8.80;99.90;;;;;;4985582;28;20052;-81
2021/12/13 07:18:29;;;;;;;2.25;2.13;;;8.80;99.90;;;;;;5007544;28;20090;-80
2021/12/13 07:21:01;;;;;;;5.05;2.65;;;8.80;99.90;;;;;;5023364;28;20497;-80
2021/12/13 07:23:26;;;;;;;3.03;2.92;;;8.80;99.90;;;;;;5006094;28;20076;-80
2021/12/13 07:25:54;;;;;;;4.20;3.60;;;8.80;99.90;;;;;;5023330;28;20046;-81
2021/12/13 07:28:36;;;;;;;1.83;1.33;;;8.80;99.90;;;;;;5022170;28;20041;-80
2021/12/13 07:31:08;;;;;;;8.25;3.67;;;8.80;99.90;;;;;;5020512;28;20072;-80
2021/12/13 07:33:44;;;;;;;3.70;3.40;;;8.80;99.90;;;;;;5020795;28;20048;-80
2021/12/13 07:36:24;;;;;;;4.68;2.45;;;8.80;99.90;;;;;;5023163;28;20045;-80
2021/12/13 07:38:57;;;;;;;2.88;2.70;;;8.80;99.90;;;;;;5011566;28;20057;-80
2021/12/13 07:41:25;;;;;;;2.67;2.25;;;8.80;99.90;;;;;;5006031;28;20050;-77
2021/12/13 07:43:51;;;;;;;3.47;2.63;;;8.80;99.90;;;;;;4996086;28;20060;-78
2021/12/13 07:46:20;;;;;;;3.53;3.22;;;8.80;99.90;;;;;;5019211;28;20095;-77
2021/12/13 07:48:45;;;;;;;1.83;1.70;;;8.80;99.90;;;;;;4994915;28;20058;-76
2021/12/13 07:51:28;;;;;;;1.88;1.77;;;8.80;99.90;;;;;;4994763;28;20045;-77
2021/12/13 07:53:57;;;;;;;3.15;2.90;;;8.80;99.90;;;;;;5008358;28;20056;-76
2021/12/13 07:56:42;;;;;;;4.22;3.40;;;8.80;99.90;;;;;;5002945;28;20464;-77
2021/12/13 07:59:25;;;;;;;2.25;1.60;;;8.80;99.90;;;;;;5000172;28;20046;-77
2021/12/13 08:01:53;;;;;;;;;;;8.80;99.90;;;;;;5004068;28;20049;-78
2021/12/13 08:04:22;;;;;;;2.60;2.28;;;8.80;99.90;;;;;;4985599;28;20622;-77
2021/12/13 08:07:10;;;;;;;2.72;2.53;;;8.80;99.90;;;;;;5004123;28;20042;-77
2021/12/13 08:09:48;;;;;;;3.15;2.95;;;8.80;99.90;;;;;;5002730;28;20046;-77
2021/12/13 08:12:17;;;;;;;3.15;2.90;;;8.80;99.90;;;;;;5004073;28;20558;-77
2021/12/13 08:14:45;;;;;;;3.78;2.30;;;8.80;99.90;;;;;;5022498;28;20053;-77
2021/12/13 08:17:18;;;;;;;2.10;2.00;;;8.80;99.90;;;;;;5004472;28;20443;-77
2021/12/13 08:20:01;;;;;;;2.75;2.55;;;8.80;99.90;;;;;;5004811;28;20064;-77
2021/12/13 08:22:29;;;;;;;2.80;2.67;;;8.80;99.90;;;;;;4995303;28;20404;-82
2021/12/13 08:25:08;;;;;;;3.03;2.83;;;8.80;99.90;;;;;;5040303;28;20056;-83
2021/12/13 08:27:42;;;;;;;3.13;2.53;;;8.80;99.90;;;;;;5001726;28;20045;-84
2021/12/13 08:30:08;;;;;;;5.50;3.35;;;8.80;99.90;;;;;;5000865;28;20046;-85
2021/12/13 08:32:34;;;;;;;4.32;2.92;;;8.80;99.90;;;;;;4985425;28;20690;-84
2021/12/13 08:35:03;;;;;;;3.08;2.50;;;8.80;99.90;;;;;;4968393;28;20046;-83
2021/12/13 08:37:33;;;;;;;4.07;2.97;;;8.80;99.90;;;;;;5012016;28;20052;-82
2021/12/13 08:40:13;;;;;;;3.33;3.05;;;8.80;99.90;;;;;;5001923;28;20088;-81
2021/12/13 08:42:43;;;;;;;2.25;2.03;;;8.80;99.90;;;;;;5018184;28;20128;-83
2021/12/13 08:45:19;;;;;;;2.53;2.33;;;8.80;99.90;;;;;;5021561;28;20073;-84
2021/12/13 08:47:52;;;;;;;3.10;2.80;;;8.90;99.90;;;;;;5018770;28;20051;-80
2021/12/13 08:50:39;;;;;;;2.90;2.45;;;8.80;99.90;;;;;;5010474;28;20037;-79
2021/12/13 08:53:10;;;;;;;3.33;2.67;;;8.80;99.90;;;;;;5020740;28;20076;-77
2021/12/13 08:55:42;;;;;;;2.35;1.80;;;8.90;99.90;;;;;;5019108;28;20045;-77
2021/12/13 08:58:17;;;;;;;1.98;1.88;;;8.90;99.90;;;;;;5019809;28;20099;-77
2021/12/13 09:01:07;;;;;;;5.20;3.53;;;8.90;99.90;;;;;;5001040;28;20045;-77
2021/12/13 09:03:40;;;;;;;2.47;2.38;;;8.90;99.90;;;;;;5003047;28;20152;-76
2021/12/13 09:06:18;;;;;;;1.65;1.55;;;8.80;99.90;;;;;;5020442;28;20179;-76
2021/12/13 09:09:06;;;;;;;2.75;2.65;;;8.80;99.90;;;;;;5001303;28;20106;-77
2021/12/13 09:11:51;;;;;;;2.05;1.95;;;8.90;99.90;;;;;;5001087;28;20481;-77
2021/12/13 09:14:30;;;;;;;2.75;2.47;;;8.80;99.90;;;;;;4983589;28;20057;-77
2021/12/13 09:17:10;;;;;;;1.55;1.45;;;8.90;99.90;;;;;;4999842;28;20049;-78
2021/12/13 09:19:48;;;;;;;2.35;2.25;;;8.90;99.90;;;;;;4982859;28;20511;-77
2021/12/13 09:22:36;;;;;;;2.13;2.03;;;8.90;99.90;;;;;;5000557;28;20398;-77
2021/12/13 09:25:08;;;;;;;2.83;2.63;;;8.90;99.90;;;;;;4983024;28;20049;-77
2021/12/13 09:27:36;;;;;;;2.63;2.17;;;8.80;99.90;;;;;;4983451;28;20050;-77
2021/12/13 09:30:01;;;;;;;4.00;3.60;;;8.90;99.90;;;;;;4998834;28;20053;-77
2021/12/13 09:32:36;;;;;;;2.67;2.47;;;8.90;99.90;;;;;;4982830;28;20045;-77
2021/12/13 09:35:27;;;;;;;2.78;2.58;;;8.90;99.90;;;;;;4982538;28;20050;-77
2021/12/13 09:37:55;;;;;;;3.20;1.83;;;8.90;99.90;;;;;;4982377;28;20041;-77
2021/12/13 09:40:31;;;;;;;2.67;2.42;;;8.90;99.90;;;;;;5000849;28;20042;-77
2021/12/13 09:42:58;;;;;;;2.88;2.08;;;8.90;99.90;;;;;;4982278;28;20161;-77
2021/12/13 09:45:47;;;;;;;2.28;2.10;;;8.90;99.90;;;;;;4999910;28;20379;-77
2021/12/13 09:48:23;;;;;;;2.33;2.22;;;8.90;99.90;;;;;;4968981;28;20057;-77
2021/12/13 09:50:53;;;;;;;2.40;2.28;;;8.90;99.90;;;;;;4983414;28;20060;-77
2021/12/13 09:53:25;;;;;;;1.20;1.15;;;8.90;99.90;;;;;;4982817;28;20103;-77
2021/12/13 09:55:51;;;;;;;2.08;1.90;;;8.90;99.90;;;;;;4982440;28;20053;-78
2021/12/13 09:58:24;;;;;;;1.98;1.88;;;8.90;99.90;;;;;;5000314;28;20057;-77
2021/12/13 10:01:28;;;;;;;1.60;1.50;;;8.90;99.90;;;;;;4982172;28;20054;-77
2021/12/13 10:04:11;;;;;;;8.02;2.20;;;8.90;99.90;;;;;;4981414;28;20061;-77
2021/12/13 10:06:44;;;;;;;3.30;1.50;;;8.90;99.90;;;;;;4982519;28;20267;-77
2021/12/13 10:09:24;;;;;;;1.50;1.45;;;8.90;99.90;;;;;;4982904;28;20076;-77
2021/12/13 10:11:53;;;;;;;1.80;1.65;;;8.90;99.90;;;;;;5004397;28;20057;-77
2021/12/13 10:14:27;;;;;;;1.58;1.33;;;9.00;99.90;;;;;;4986198;28;20136;-77
2021/12/13 10:16:55;;;;;;;1.05;0.98;;;8.90;99.90;;;;;;5003468;28;20034;-77
2021/12/13 10:19:39;;;;;;;2.47;2.13;;;9.00;99.90;;;;;;5003423;28;20041;-77
2021/12/13 10:22:08;;;;;;;2.00;1.88;;;9.00;99.90;;;;;;4985915;28;20491;-77
2021/12/13 10:24:41;;;;;;;2.50;1.85;;;9.00;99.90;;;;;;4985822;28;20407;-77
2021/12/13 10:27:09;;;;;;;3.72;2.10;;;9.00;99.90;;;;;;5003145;28;20049;-77
2021/12/13 10:29:36;;;;;;;1.58;1.48;;;9.00;99.90;;;;;;5013704;28;20037;-77
2021/12/13 10:32:06;;;;;;;3.20;2.10;;;9.00;99.90;;;;;;5022528;28;20038;-77
2021/12/13 10:34:41;;;;;;;2.67;2.42;;;9.00;99.90;;;;;;5005109;28;20041;-77
2021/12/13 10:37:15;;;;;;;2.40;2.13;;;9.00;99.90;;;;;;5021375;28;20041;-77
2021/12/13 10:39:46;;;;;;;2.33;2.13;;;9.00;99.90;;;;;;5023025;28;20041;-77
2021/12/13 10:42:17;;;;;;;2.20;1.98;;;9.00;99.90;;;;;;5023329;28;20045;-78
2021/12/13 10:44:44;;;;;;;4.20;2.40;;;9.00;99.90;;;;;;5000802;28;20506;-76
2021/12/13 10:47:17;;;;;;;2.00;1.88;;;9.00;99.90;;;;;;5013906;28;20103;-77
2021/12/13 10:49:45;;;;;;;;;;;9.00;99.90;;;;;;5006613;28;20048;-77
2021/12/13 10:52:17;;;;;;;2.40;2.20;;;9.00;99.90;;;;;;5022449;28;20309;-77
2021/12/13 10:54:51;;;;;;;2.80;2.60;;;9.00;99.90;;;;;;4991205;28;20563;-76
2021/12/13 10:57:26;;;;;;;3.33;2.72;;;9.00;99.90;;;;;;4985903;28;20050;-77
2021/12/13 10:59:53;;;;;;;2.08;1.88;;;9.00;99.90;;;;;;5003196;28;20092;-77
2021/12/13 11:02:23;;;;;;;2.67;2.47;;;9.10;99.90;;;;;;5003359;28;20046;-77
2021/12/13 11:04:57;;;;;;;2.17;2.05;;;9.10;99.90;;;;;;5003199;28;20046;-76
2021/12/13 11:07:23;;;;;;;5.70;2.67;;;9.10;99.90;;;;;;4985172;28;20054;-77
2021/12/13 11:09:53;;;;;;;1.77;1.67;;;9.10;99.90;;;;;;5016353;28;20090;-77
2021/12/13 11:12:21;;;;;;;3.13;2.92;;;9.10;99.90;;;;;;5022853;28;20113;-77
2021/12/13 11:14:50;;;;;;;3.78;3.47;;;9.10;99.90;;;;;;5004134;28;20312;-76
2021/12/13 11:17:20;;;;;;;5.47;2.13;;;9.10;99.90;;;;;;5004644;28;20540;-78
2021/12/13 11:19:52;;;;;;;4.15;2.25;;;9.10;99.90;;;;;;5007622;28;20124;-79
2021/12/13 11:22:29;;;;;;;3.17;2.83;;;9.10;99.90;;;;;;5010802;28;20060;-79
2021/12/13 11:24:59;;;;;;;2.38;2.00;;;9.10;99.90;;;;;;5019820;28;20053;-79
2021/12/13 11:27:31;;;;;;;2.85;1.95;;;9.10;99.90;;;;;;4996879;28;20058;-79
2021/12/13 11:29:58;;;;;;;2.63;2.42;;;9.10;99.90;;;;;;5006563;28;20048;-80
2021/12/13 11:32:38;;;;;;;2.88;2.17;;;9.10;99.90;;;;;;4999862;28;20118;-79
2021/12/13 11:35:07;;;;;;;2.47;2.30;;;9.10;99.90;;;;;;5021593;28;20041;-79
2021/12/13 11:38:10;;;;;;;3.30;3.10;;;9.10;99.90;;;;;;5022213;28;20046;-80
2021/12/13 11:41:04;;;;;;;4.32;3.88;;;9.20;99.90;;;;;;4996121;28;20042;-78
2021/12/13 11:44:07;;;;;;;4.65;2.38;;;9.20;99.90;;;;;;5000119;28;20050;-79
2021/12/13 11:46:54;;;;;;;1.02;1.02;;;9.20;99.90;;;;;;4995846;28;20057;-80
2021/12/13 11:49:41;;;;;;;2.05;1.88;;;9.20;99.90;;;;;;4985004;28;20042;-79
2021/12/13 11:52:39;;;;;;;2.17;2.03;;;9.20;99.90;;;;;;5011899;28;20096;-80
2021/12/13 11:55:30;;;;;;;2.58;2.35;;;9.20;99.90;;;;;;5008269;28;20626;-81
2021/12/13 11:58:33;;;;;;;3.33;2.78;;;9.20;99.90;;;;;;4989629;28;20050;-81
2021/12/13 12:01:30;;;;;;;2.35;2.15;;;9.20;99.90;;;;;;5000406;28;20077;-82
2021/12/13 12:04:07;;;;;;;3.05;2.80;;;9.30;99.90;;;;;;5002848;28;20501;-80
2021/12/13 12:07:04;;;;;;;2.50;2.30;;;9.20;99.90;;;;;;5001649;28;20041;-80
2021/12/13 12:10:07;;;;;;;2.60;2.35;;;9.20;99.90;;;;;;4987064;28;20092;-80
2021/12/13 12:13:10;;;;;;;3.25;2.95;;;9.30;99.90;;;;;;5003110;28;20045;-80
2021/12/13 12:15:39;;;;;;;1.58;1.48;;;9.30;99.90;;;;;;4985651;28;20338;-80
2021/12/13 12:18:08;;;;;;;2.08;1.90;;;9.30;99.90;;;;;;5001197;28;20463;-79
2021/12/13 12:20:46;;;;;;;3.42;2.53;;;9.30;99.90;;;;;;4983839;28;20091;-79
2021/12/13 12:23:25;;;;;;;2.42;2.33;;;9.30;99.90;;;;;;4982840;28;20128;-81
2021/12/13 12:25:50;;;;;;;5.32;2.53;;;9.40;99.90;;;;;;5018778;28;20045;-80
2021/12/13 12:28:18;;;;;;;2.63;2.42;;;9.40;99.90;;;;;;5020488;28;20090;-81
2021/12/13 12:30:51;;;;;;;10.38;2.05;;;9.40;99.90;;;;;;5004620;28;20311;-80
2021/12/13 12:33:32;;;;;;;3.15;2.45;;;9.40;99.90;;;;;;4983078;28;20073;-81
2021/12/13 12:36:04;;;;;;;1.67;1.60;;;9.40;99.90;;;;;;4983368;28;20115;-81
2021/12/13 12:38:56;;;;;;;4.43;2.85;;;9.40;99.90;;;;;;4983461;28;20088;-79
2021/12/13 12:41:45;;;;;;;6.28;3.72;;;9.40;99.90;;;;;;4983092;28;20493;-79
2021/12/13 12:44:17;;;;;;;3.35;3.05;;;9.40;99.90;;;;;;5003536;28;20053;-81
2021/12/13 12:46:43;;;;;;;2.63;2.42;;;9.40;99.90;;;;;;4986403;28;20088;-79
2021/12/13 12:49:21;;;;;;;5.45;1.90;;;9.40;99.90;;;;;;5002313;28;20515;-80
2021/12/13 12:51:47;;;;;;;3.63;3.33;;;9.40;99.90;;;;;;4990138;28;20033;-81
2021/12/13 12:54:15;;;;;;;1.65;1.55;;;9.40;99.90;;;;;;5007499;28;20526;-79
2021/12/13 12:56:47;;;;;;;2.10;2.00;;;9.50;99.90;;;;;;4992006;28;20049;-79
2021/12/13 12:59:33;;;;;;;5.07;2.72;;;9.50;99.90;;;;;;4998764;28;20049;-80
2021/12/13 13:02:09;;;;;;;1.70;1.58;;;9.50;99.90;;;;;;5018734;28;20053;-81
2021/12/13 13:04:45;;;;;;;2.15;2.03;;;9.50;99.90;;;;;;5000457;28;20101;-80
2021/12/13 13:07:29;;;;;;;2.70;2.50;;;9.50;99.90;;;;;;5000534;28;20050;-81
2021/12/13 13:10:20;;;;;;;2.42;2.22;;;9.50;99.90;;;;;;4983444;28;20077;-79
2021/12/13 13:12:48;;;;;;;3.38;2.17;;;9.50;99.90;;;;;;4998356;28;20160;-80
2021/12/13 13:15:28;;;;;;;2.30;2.17;;;9.50;99.90;;;;;;5001430;28;20046;-78
2021/12/13 13:18:07;;;;;;;4.35;1.73;;;9.50;99.90;;;;;;4982886;28;20038;-81
2021/12/13 13:20:38;;;;;;;2.25;2.15;;;9.50;99.90;;;;;;4996310;28;20516;-80
2021/12/13 13:23:08;;;;;;;3.08;2.88;;;9.50;99.90;;;;;;4999047;28;20469;-79
2021/12/13 13:25:38;;;;;;;3.28;2.78;;;9.50;99.90;;;;;;5001229;28;20519;-80
2021/12/13 13:28:16;;;;;;;2.83;2.63;;;9.50;99.90;;;;;;4982595;28;20125;-81
2021/12/13 13:30:51;;;;;;;2.75;2.25;;;9.50;99.90;;;;;;5003271;28;20511;-81
2021/12/13 13:33:36;;;;;;;2.20;1.95;;;9.50;99.90;;;;;;5003142;28;20049;-80
2021/12/13 13:36:05;;;;;;;9.07;2.45;;;9.50;99.90;;;;;;5002280;28;20048;-81
2021/12/13 13:38:30;;;;;;;1.92;1.83;;;9.50;99.90;;;;;;5002366;28;20487;-80
2021/12/13 13:40:56;;;;;;;3.35;2.45;;;9.50;99.90;;;;;;5017619;28;20036;-80
2021/12/13 13:43:23;;;;;;;3.67;3.28;;;9.50;99.90;;;;;;4996605;28;20068;-81